LSI281 OSDI-EDDK
Flight info
| Callsign | LSI281 |
|---|---|
| Flight time | 3h 57m |
| Altitude | 30000 |
| Route | LEBOR UR655 BALMA M601 EVENO UM601 LAKAD/N0489F320 UM601 RDS UL609 MES UG18 GIKAS UN133 PEREN UL863 EVIVI DCT OKANA DCT XENIT DCT BABIT DCT GOTAR DCT ABRUK DCT SIMBA DCT AKINI T161 ERNAS Y101 OSBIT L984 ASKIK T840 GULKO |
| Aircraft | B77L/H-SDE1E2E3FGHIJ2J3J4J5M1RWXY/LB1D1 |
Departure
| Time | 2026-04-26 17:27 |
|---|---|
| Airport | Damascus International Airport (OSDI) |
Arrival
| Time | 2026-04-26 21:24 |
|---|---|
| Airport | Cologne Bonn Airport (EDDK) |
| Time | Latitude | Longitude | Altitude | Speed | Heading |
|---|---|---|---|---|---|
| 2026-04-26 17:06 | 33.41253 | 36.51715 | 2026 ft | 0 kts | 50° |
| 2026-04-26 17:06 | 33.41252 | 36.51714 | 2021 ft | 0 kts | 50° |
| 2026-04-26 17:07 | 33.41251 | 36.51713 | 2007 ft | 0 kts | 50° |
| 2026-04-26 17:07 | 33.41251 | 36.51712 | 2007 ft | 0 kts | 50° |
| 2026-04-26 17:07 | 33.41250 | 36.51711 | 2007 ft | 0 kts | 50° |
| 2026-04-26 17:07 | 33.41249 | 36.51710 | 2021 ft | 0 kts | 50° |
| 2026-04-26 17:08 | 33.41248 | 36.51709 | 2021 ft | 0 kts | 50° |
| 2026-04-26 17:08 | 33.41247 | 36.51708 | 2021 ft | 0 kts | 50° |
| 2026-04-26 17:08 | 33.41247 | 36.51707 | 2021 ft | 0 kts | 50° |
| 2026-04-26 17:09 | 33.41246 | 36.51706 | 2021 ft | 0 kts | 50° |
| 2026-04-26 17:09 | 33.41246 | 36.51705 | 2021 ft | 0 kts | 50° |
| 2026-04-26 17:09 | 33.41245 | 36.51704 | 2016 ft | 0 kts | 50° |
| 2026-04-26 17:09 | 33.41244 | 36.51703 | 2016 ft | 0 kts | 50° |
| 2026-04-26 17:10 | 33.41243 | 36.51702 | 2016 ft | 0 kts | 50° |
| 2026-04-26 17:10 | 33.41242 | 36.51701 | 2016 ft | 0 kts | 50° |
| 2026-04-26 17:10 | 33.41242 | 36.51700 | 2016 ft | 0 kts | 50° |
| 2026-04-26 17:10 | 33.41241 | 36.51699 | 2016 ft | 0 kts | 50° |
| 2026-04-26 17:11 | 33.41240 | 36.51698 | 2016 ft | 0 kts | 55° |
| 2026-04-26 17:11 | 33.41240 | 36.51697 | 2016 ft | 0 kts | 57° |
| 2026-04-26 17:11 | 33.41240 | 36.51696 | 2016 ft | 0 kts | 59° |
| 2026-04-26 17:11 | 33.41239 | 36.51695 | 2016 ft | 0 kts | 59° |
| 2026-04-26 17:12 | 33.41222 | 36.51657 | 2017 ft | 3 kts | 76° |
| 2026-04-26 17:12 | 33.41219 | 36.51634 | 2016 ft | 3 kts | 97° |
| 2026-04-26 17:13 | 33.41234 | 36.51593 | 2016 ft | 3 kts | 137° |
| 2026-04-26 17:13 | 33.41238 | 36.51589 | 2016 ft | 0 kts | 143° |
| 2026-04-26 17:14 | 33.41235 | 36.51590 | 2016 ft | 3 kts | 150° |
| 2026-04-26 17:14 | 33.41171 | 36.51627 | 2016 ft | 13 kts | 148° |
| 2026-04-26 17:15 | 33.41137 | 36.51797 | 2018 ft | 13 kts | 54° |
| 2026-04-26 17:15 | 33.41175 | 36.51891 | 2016 ft | 13 kts | 83° |
| 2026-04-26 17:15 | 33.41143 | 36.51987 | 2018 ft | 13 kts | 134° |
| 2026-04-26 17:16 | 33.41077 | 36.52060 | 2029 ft | 13 kts | 137° |
| 2026-04-26 17:16 | 33.41011 | 36.52132 | 2022 ft | 13 kts | 137° |
| 2026-04-26 17:16 | 33.40946 | 36.52204 | 2028 ft | 13 kts | 137° |
| 2026-04-26 17:16 | 33.40879 | 36.52275 | 2030 ft | 13 kts | 139° |
| 2026-04-26 17:17 | 33.40810 | 36.52342 | 2030 ft | 13 kts | 147° |
| 2026-04-26 17:17 | 33.40730 | 36.52329 | 2017 ft | 13 kts | 218° |
| 2026-04-26 17:17 | 33.40672 | 36.52248 | 2016 ft | 13 kts | 232° |
| 2026-04-26 17:17 | 33.40616 | 36.52164 | 2018 ft | 13 kts | 231° |
| 2026-04-26 17:18 | 33.40558 | 36.52081 | 2017 ft | 13 kts | 229° |
| 2026-04-26 17:18 | 33.40498 | 36.52002 | 2017 ft | 13 kts | 226° |
| 2026-04-26 17:18 | 33.40437 | 36.51924 | 2029 ft | 13 kts | 227° |
| 2026-04-26 17:18 | 33.40375 | 36.51845 | 2033 ft | 13 kts | 227° |
| 2026-04-26 17:19 | 33.40256 | 36.51685 | 2033 ft | 13 kts | 230° |
| 2026-04-26 17:19 | 33.40197 | 36.51604 | 2030 ft | 13 kts | 229° |
| 2026-04-26 17:19 | 33.40138 | 36.51523 | 2030 ft | 13 kts | 228° |
| 2026-04-26 17:20 | 33.40078 | 36.51444 | 2028 ft | 13 kts | 227° |
| 2026-04-26 17:20 | 33.40038 | 36.51391 | 2033 ft | 13 kts | 227° |
| 2026-04-26 17:20 | 33.39958 | 36.51285 | 2027 ft | 13 kts | 229° |
| 2026-04-26 17:20 | 33.39899 | 36.51203 | 2033 ft | 13 kts | 229° |
| 2026-04-26 17:21 | 33.39841 | 36.51121 | 2033 ft | 13 kts | 229° |
| 2026-04-26 17:21 | 33.39783 | 36.51040 | 2031 ft | 13 kts | 229° |
| 2026-04-26 17:21 | 33.39724 | 36.50959 | 2030 ft | 13 kts | 228° |
| 2026-04-26 17:21 | 33.39665 | 36.50878 | 2031 ft | 13 kts | 228° |
| 2026-04-26 17:22 | 33.39605 | 36.50799 | 2031 ft | 13 kts | 226° |
| 2026-04-26 17:22 | 33.39542 | 36.50722 | 2032 ft | 13 kts | 226° |
| 2026-04-26 17:22 | 33.39481 | 36.50643 | 2033 ft | 13 kts | 229° |
| 2026-04-26 17:22 | 33.39422 | 36.50563 | 2033 ft | 13 kts | 228° |
| 2026-04-26 17:23 | 33.39362 | 36.50483 | 2031 ft | 13 kts | 227° |
| 2026-04-26 17:23 | 33.39298 | 36.50400 | 2033 ft | 14 kts | 227° |
| 2026-04-26 17:23 | 33.39226 | 36.50305 | 2033 ft | 16 kts | 229° |
| 2026-04-26 17:23 | 33.39151 | 36.50200 | 2030 ft | 17 kts | 229° |
| 2026-04-26 17:24 | 33.39071 | 36.50088 | 2032 ft | 18 kts | 229° |
| 2026-04-26 17:24 | 33.38986 | 36.49969 | 2032 ft | 19 kts | 229° |
| 2026-04-26 17:24 | 33.38897 | 36.49848 | 2032 ft | 20 kts | 228° |
| 2026-04-26 17:24 | 33.38805 | 36.49729 | 2033 ft | 20 kts | 228° |
| 2026-04-26 17:25 | 33.38715 | 36.49607 | 2031 ft | 20 kts | 229° |
| 2026-04-26 17:25 | 33.38663 | 36.49530 | 2033 ft | 10 kts | 231° |
| 2026-04-26 17:25 | 33.38600 | 36.49501 | 2031 ft | 11 kts | 169° |
| 2026-04-26 17:25 | 33.38542 | 36.49551 | 2029 ft | 11 kts | 127° |
| 2026-04-26 17:26 | 33.38530 | 36.49634 | 2028 ft | 11 kts | 77° |
| 2026-04-26 17:26 | 33.38573 | 36.49705 | 2031 ft | 11 kts | 46° |
| 2026-04-26 17:26 | 33.38660 | 36.49816 | 2034 ft | 26 kts | 48° |
| 2026-04-26 17:26 | 33.38937 | 36.50195 | 2016 ft | 104 kts | 49° |
| 2026-04-26 17:27 | 33.39620 | 36.51103 | 2039 ft | 188 kts | 48° |
| 2026-04-26 17:27 | 33.40583 | 36.52393 | 2443 ft | 218 kts | 47° |
| 2026-04-26 17:27 | 33.41633 | 36.53732 | 3564 ft | 222 kts | 47° |
| 2026-04-26 17:27 | 33.42749 | 36.55097 | 4583 ft | 240 kts | 47° |
| 2026-04-26 17:28 | 33.43975 | 36.56618 | 5349 ft | 265 kts | 49° |
| 2026-04-26 17:28 | 33.45196 | 36.58340 | 6097 ft | 276 kts | 54° |
| 2026-04-26 17:28 | 33.46530 | 36.59998 | 6627 ft | 283 kts | 31° |
| 2026-04-26 17:28 | 33.48404 | 36.60624 | 7322 ft | 281 kts | 358° |
| 2026-04-26 17:29 | 33.50364 | 36.60396 | 7996 ft | 286 kts | 350° |
| 2026-04-26 17:29 | 33.51673 | 36.60141 | 8401 ft | 291 kts | 349° |
| 2026-04-26 17:29 | 33.54399 | 36.59671 | 9268 ft | 300 kts | 351° |
| 2026-04-26 17:29 | 33.56499 | 36.59411 | 9935 ft | 306 kts | 353° |
| 2026-04-26 17:30 | 33.58650 | 36.59221 | 10455 ft | 317 kts | 354° |
| 2026-04-26 17:30 | 33.60939 | 36.59078 | 10636 ft | 342 kts | 355° |
| 2026-04-26 17:30 | 33.63401 | 36.58975 | 10828 ft | 365 kts | 356° |
| 2026-04-26 17:30 | 33.66019 | 36.58903 | 11060 ft | 387 kts | 357° |
| 2026-04-26 17:31 | 33.68751 | 36.58852 | 11614 ft | 397 kts | 357° |
| 2026-04-26 17:31 | 33.71544 | 36.58815 | 12265 ft | 405 kts | 357° |
| 2026-04-26 17:31 | 33.74382 | 36.58787 | 12996 ft | 410 kts | 357° |
| 2026-04-26 17:31 | 33.77250 | 36.58763 | 13761 ft | 415 kts | 356° |
| 2026-04-26 17:32 | 33.80165 | 36.58737 | 14391 ft | 421 kts | 356° |
| 2026-04-26 17:32 | 33.83105 | 36.58711 | 15106 ft | 424 kts | 356° |
| 2026-04-26 17:32 | 33.86069 | 36.58686 | 15840 ft | 427 kts | 356° |
| 2026-04-26 17:32 | 33.89050 | 36.58657 | 16508 ft | 431 kts | 356° |
| 2026-04-26 17:33 | 33.92061 | 36.58626 | 17148 ft | 435 kts | 356° |
| 2026-04-26 17:33 | 33.95110 | 36.58596 | 17818 ft | 439 kts | 356° |
| 2026-04-26 17:33 | 33.98175 | 36.58567 | 18466 ft | 442 kts | 356° |
| 2026-04-26 17:34 | 34.04367 | 36.58510 | 19698 ft | 447 kts | 356° |
| 2026-04-26 17:34 | 34.07488 | 36.58481 | 20281 ft | 450 kts | 356° |
| 2026-04-26 17:34 | 34.10623 | 36.58452 | 20854 ft | 453 kts | 356° |
| 2026-04-26 17:34 | 34.13792 | 36.58422 | 21444 ft | 455 kts | 357° |
| 2026-04-26 17:35 | 34.16960 | 36.58377 | 22003 ft | 454 kts | 354° |
| 2026-04-26 17:35 | 34.20046 | 36.57672 | 22359 ft | 453 kts | 335° |
| 2026-04-26 17:35 | 34.22753 | 36.55789 | 22838 ft | 449 kts | 317° |
| 2026-04-26 17:35 | 34.24880 | 36.53067 | 23398 ft | 445 kts | 301° |
| 2026-04-26 17:36 | 34.26378 | 36.49822 | 23888 ft | 442 kts | 289° |
| 2026-04-26 17:36 | 34.27211 | 36.46266 | 24322 ft | 439 kts | 274° |
| 2026-04-26 17:36 | 34.27381 | 36.42603 | 24688 ft | 439 kts | 269° |
| 2026-04-26 17:36 | 34.27460 | 36.38909 | 25081 ft | 442 kts | 269° |
| 2026-04-26 17:37 | 34.27538 | 36.35171 | 25545 ft | 445 kts | 269° |
| 2026-04-26 17:37 | 34.27633 | 36.31429 | 26025 ft | 446 kts | 269° |
| 2026-04-26 17:37 | 34.27741 | 36.27856 | 26450 ft | 449 kts | 270° |
| 2026-04-26 17:38 | 34.27990 | 36.20580 | 27255 ft | 455 kts | 270° |
| 2026-04-26 17:38 | 34.28125 | 36.16761 | 27672 ft | 457 kts | 270° |
| 2026-04-26 17:38 | 34.28261 | 36.12911 | 28088 ft | 460 kts | 270° |
| 2026-04-26 17:38 | 34.28397 | 36.09041 | 28481 ft | 462 kts | 270° |
| 2026-04-26 17:39 | 34.28531 | 36.05146 | 28851 ft | 465 kts | 270° |
| 2026-04-26 17:39 | 34.28663 | 36.01224 | 29214 ft | 468 kts | 270° |
| 2026-04-26 17:39 | 34.28811 | 35.97287 | 29542 ft | 470 kts | 270° |
| 2026-04-26 17:39 | 34.28994 | 35.93382 | 29884 ft | 473 kts | 271° |
| 2026-04-26 17:40 | 34.29260 | 35.88036 | 29948 ft | 478 kts | 271° |
| 2026-04-26 17:40 | 34.29767 | 35.77411 | 29944 ft | 473 kts | 271° |
| 2026-04-26 17:41 | 34.30487 | 35.69483 | 29936 ft | 478 kts | 279° |
| 2026-04-26 17:41 | 34.32331 | 35.61730 | 29947 ft | 481 kts | 287° |
| 2026-04-26 17:42 | 34.34544 | 35.54069 | 29926 ft | 483 kts | 287° |
| 2026-04-26 17:42 | 34.36735 | 35.46387 | 29928 ft | 483 kts | 286° |
| 2026-04-26 17:43 | 34.38893 | 35.38685 | 29924 ft | 483 kts | 286° |
| 2026-04-26 17:43 | 34.41037 | 35.30982 | 29930 ft | 483 kts | 286° |
| 2026-04-26 17:44 | 34.43176 | 35.23278 | 29927 ft | 482 kts | 286° |
| 2026-04-26 17:44 | 34.45306 | 35.15587 | 29933 ft | 481 kts | 286° |
| 2026-04-26 17:45 | 34.47432 | 35.07896 | 29933 ft | 481 kts | 286° |
| 2026-04-26 17:45 | 34.49568 | 35.00209 | 29936 ft | 481 kts | 287° |
| 2026-04-26 17:46 | 34.51734 | 34.92539 | 29928 ft | 481 kts | 287° |
| 2026-04-26 17:46 | 34.53900 | 34.84850 | 29935 ft | 482 kts | 287° |
| 2026-04-26 17:47 | 34.55344 | 34.79703 | 29932 ft | 482 kts | 287° |
| 2026-04-26 17:47 | 34.58208 | 34.69442 | 29928 ft | 483 kts | 287° |
| 2026-04-26 17:48 | 34.60357 | 34.61719 | 29924 ft | 483 kts | 287° |
| 2026-04-26 17:48 | 34.62500 | 34.53998 | 29931 ft | 483 kts | 287° |
| 2026-04-26 17:49 | 34.64643 | 34.46254 | 29940 ft | 484 kts | 287° |
| 2026-04-26 17:49 | 34.66780 | 34.38507 | 29929 ft | 484 kts | 287° |
| 2026-04-26 17:50 | 34.68903 | 34.30790 | 29930 ft | 484 kts | 287° |
| 2026-04-26 17:50 | 34.71031 | 34.23034 | 29929 ft | 484 kts | 287° |
| 2026-04-26 17:51 | 34.72969 | 34.15950 | 29924 ft | 484 kts | 287° |
| 2026-04-26 17:51 | 34.75085 | 34.08180 | 29925 ft | 485 kts | 286° |
| 2026-04-26 17:52 | 34.77156 | 34.00373 | 29916 ft | 485 kts | 286° |
| 2026-04-26 17:52 | 34.79225 | 33.92561 | 29909 ft | 485 kts | 286° |
| 2026-04-26 17:53 | 34.81334 | 33.84748 | 29895 ft | 486 kts | 287° |
| 2026-04-26 17:54 | 34.84506 | 33.73022 | 29885 ft | 486 kts | 287° |
| 2026-04-26 17:54 | 34.86608 | 33.65193 | 29902 ft | 487 kts | 287° |
| 2026-04-26 17:55 | 34.88786 | 33.57381 | 29889 ft | 488 kts | 288° |
| 2026-04-26 17:55 | 34.91110 | 33.49613 | 29885 ft | 488 kts | 288° |
| 2026-04-26 17:56 | 34.93397 | 33.41815 | 29892 ft | 489 kts | 288° |
| 2026-04-26 17:57 | 34.97510 | 33.27477 | 29900 ft | 490 kts | 288° |
| 2026-04-26 17:57 | 34.99795 | 33.19652 | 29899 ft | 490 kts | 288° |
| 2026-04-26 17:58 | 35.04317 | 33.03955 | 29907 ft | 491 kts | 288° |
| 2026-04-26 17:59 | 35.07686 | 32.92146 | 29910 ft | 491 kts | 287° |
| 2026-04-26 17:59 | 35.09832 | 32.84228 | 29911 ft | 492 kts | 287° |
| 2026-04-26 18:00 | 35.11934 | 32.76283 | 29920 ft | 492 kts | 287° |
| 2026-04-26 18:00 | 35.14043 | 32.68328 | 29923 ft | 492 kts | 287° |
| 2026-04-26 18:01 | 35.16158 | 32.60372 | 29913 ft | 493 kts | 287° |
| 2026-04-26 18:01 | 35.18273 | 32.52401 | 29926 ft | 493 kts | 287° |
| 2026-04-26 18:02 | 35.20040 | 32.45721 | 29923 ft | 493 kts | 287° |
| 2026-04-26 18:02 | 35.22483 | 32.36454 | 29916 ft | 493 kts | 287° |
| 2026-04-26 18:03 | 35.24578 | 32.28481 | 29919 ft | 493 kts | 287° |
| 2026-04-26 18:03 | 35.26672 | 32.20485 | 29922 ft | 494 kts | 287° |
| 2026-04-26 18:04 | 35.28763 | 32.12480 | 29940 ft | 494 kts | 287° |
| 2026-04-26 18:05 | 35.31906 | 32.00451 | 29924 ft | 495 kts | 287° |
| 2026-04-26 18:05 | 35.34025 | 31.92428 | 29936 ft | 496 kts | 287° |
| 2026-04-26 18:06 | 35.36145 | 31.84377 | 29926 ft | 497 kts | 288° |
| 2026-04-26 18:06 | 35.38260 | 31.76301 | 29929 ft | 498 kts | 288° |
| 2026-04-26 18:07 | 35.40371 | 31.68211 | 29928 ft | 499 kts | 288° |
| 2026-04-26 18:07 | 35.42463 | 31.60167 | 29927 ft | 499 kts | 288° |
| 2026-04-26 18:08 | 35.44563 | 31.52066 | 29931 ft | 499 kts | 288° |
| 2026-04-26 18:08 | 35.46661 | 31.43953 | 29932 ft | 498 kts | 288° |
| 2026-04-26 18:09 | 35.48749 | 31.35850 | 29931 ft | 499 kts | 288° |
| 2026-04-26 18:09 | 35.50835 | 31.27731 | 29933 ft | 499 kts | 288° |
| 2026-04-26 18:10 | 35.52916 | 31.19602 | 29934 ft | 499 kts | 288° |
| 2026-04-26 18:10 | 35.54994 | 31.11463 | 29934 ft | 500 kts | 288° |
| 2026-04-26 18:11 | 35.57071 | 31.03297 | 29939 ft | 501 kts | 288° |
| 2026-04-26 18:11 | 35.59147 | 30.95113 | 29939 ft | 502 kts | 288° |
| 2026-04-26 18:12 | 35.61219 | 30.86919 | 29940 ft | 503 kts | 288° |
| 2026-04-26 18:12 | 35.63311 | 30.78709 | 29942 ft | 504 kts | 288° |
| 2026-04-26 18:13 | 35.65434 | 30.70498 | 29937 ft | 504 kts | 288° |
| 2026-04-26 18:13 | 35.67552 | 30.62268 | 29941 ft | 505 kts | 288° |
| 2026-04-26 18:14 | 35.69662 | 30.54024 | 29942 ft | 506 kts | 288° |
| 2026-04-26 18:14 | 35.71766 | 30.45762 | 29946 ft | 506 kts | 288° |
| 2026-04-26 18:15 | 35.73865 | 30.37497 | 29945 ft | 506 kts | 288° |
| 2026-04-26 18:15 | 35.75944 | 30.29285 | 29941 ft | 506 kts | 288° |
| 2026-04-26 18:16 | 35.78032 | 30.21010 | 29946 ft | 506 kts | 288° |
| 2026-04-26 18:16 | 35.81147 | 30.08611 | 29946 ft | 505 kts | 288° |
| 2026-04-26 18:17 | 35.83216 | 30.00349 | 29951 ft | 504 kts | 288° |
| 2026-04-26 18:17 | 35.85398 | 29.92147 | 29948 ft | 503 kts | 290° |
| 2026-04-26 18:18 | 35.87665 | 29.83999 | 29951 ft | 502 kts | 291° |
| 2026-04-26 18:18 | 35.89906 | 29.75846 | 29968 ft | 502 kts | 290° |
| 2026-04-26 18:19 | 35.92119 | 29.67692 | 29963 ft | 501 kts | 291° |
| 2026-04-26 18:19 | 35.94323 | 29.59537 | 29964 ft | 500 kts | 291° |
| 2026-04-26 18:20 | 35.96521 | 29.51398 | 29958 ft | 500 kts | 291° |
| 2026-04-26 18:20 | 35.98343 | 29.44628 | 29964 ft | 499 kts | 291° |
| 2026-04-26 18:21 | 36.00889 | 29.35131 | 29962 ft | 499 kts | 291° |
| 2026-04-26 18:21 | 36.03063 | 29.26996 | 29965 ft | 498 kts | 292° |
| 2026-04-26 18:22 | 36.05227 | 29.18868 | 29965 ft | 498 kts | 292° |
| 2026-04-26 18:22 | 36.07383 | 29.10749 | 29963 ft | 497 kts | 292° |
| 2026-04-26 18:23 | 36.09535 | 29.02620 | 29962 ft | 497 kts | 292° |
| 2026-04-26 18:23 | 36.11677 | 28.94499 | 29957 ft | 497 kts | 292° |
| 2026-04-26 18:24 | 36.13801 | 28.86427 | 29960 ft | 497 kts | 292° |
| 2026-04-26 18:24 | 36.15932 | 28.78298 | 29953 ft | 497 kts | 292° |
| 2026-04-26 18:25 | 36.18057 | 28.70169 | 29949 ft | 496 kts | 292° |
| 2026-04-26 18:25 | 36.20175 | 28.62039 | 29950 ft | 496 kts | 292° |
| 2026-04-26 18:26 | 36.22286 | 28.53910 | 29947 ft | 496 kts | 292° |
| 2026-04-26 18:26 | 36.24389 | 28.45785 | 29939 ft | 495 kts | 292° |
| 2026-04-26 18:27 | 36.26482 | 28.37654 | 29936 ft | 495 kts | 292° |
| 2026-04-26 18:27 | 36.28563 | 28.29535 | 29932 ft | 494 kts | 292° |
| 2026-04-26 18:28 | 36.30637 | 28.21419 | 29934 ft | 493 kts | 292° |
| 2026-04-26 18:28 | 36.32744 | 28.13329 | 29930 ft | 490 kts | 296° |
| 2026-04-26 18:29 | 36.36078 | 28.06131 | 29943 ft | 478 kts | 312° |
| 2026-04-26 18:29 | 36.40662 | 28.00303 | 29917 ft | 470 kts | 322° |
| 2026-04-26 18:30 | 36.45504 | 27.94836 | 29939 ft | 470 kts | 322° |
| 2026-04-26 18:30 | 36.50320 | 27.89342 | 29940 ft | 470 kts | 321° |
| 2026-04-26 18:31 | 36.55112 | 27.83806 | 29945 ft | 470 kts | 321° |
| 2026-04-26 18:31 | 36.59892 | 27.78251 | 29947 ft | 470 kts | 321° |
| 2026-04-26 18:32 | 36.64662 | 27.72696 | 29958 ft | 470 kts | 321° |
| 2026-04-26 18:32 | 36.69397 | 27.67176 | 29964 ft | 469 kts | 320° |
| 2026-04-26 18:33 | 36.74167 | 27.61607 | 29968 ft | 470 kts | 320° |
| 2026-04-26 18:33 | 36.78931 | 27.56033 | 29967 ft | 470 kts | 320° |
| 2026-04-26 18:34 | 36.83690 | 27.50456 | 29981 ft | 469 kts | 320° |
| 2026-04-26 18:34 | 36.88435 | 27.44884 | 29989 ft | 468 kts | 320° |
| 2026-04-26 18:35 | 36.93173 | 27.39312 | 29994 ft | 467 kts | 320° |
| 2026-04-26 18:35 | 36.97901 | 27.33741 | 29997 ft | 467 kts | 320° |
| 2026-04-26 18:36 | 37.02621 | 27.28170 | 29999 ft | 467 kts | 320° |
| 2026-04-26 18:36 | 37.07341 | 27.22588 | 29999 ft | 466 kts | 320° |
| 2026-04-26 18:37 | 37.12025 | 27.17040 | 29996 ft | 466 kts | 319° |
| 2026-04-26 18:37 | 37.16763 | 27.11418 | 30001 ft | 466 kts | 319° |
| 2026-04-26 18:38 | 37.21432 | 27.05866 | 29995 ft | 466 kts | 319° |
| 2026-04-26 18:38 | 37.26130 | 27.00270 | 29998 ft | 466 kts | 319° |
| 2026-04-26 18:39 | 37.30826 | 26.94664 | 29997 ft | 466 kts | 319° |
| 2026-04-26 18:39 | 37.35527 | 26.89043 | 29997 ft | 466 kts | 319° |
| 2026-04-26 18:40 | 37.40152 | 26.83525 | 29992 ft | 466 kts | 320° |
| 2026-04-26 18:40 | 37.45042 | 26.78167 | 29991 ft | 466 kts | 322° |
| 2026-04-26 18:41 | 37.49998 | 26.72906 | 29986 ft | 466 kts | 321° |
| 2026-04-26 18:41 | 37.54935 | 26.67611 | 29985 ft | 466 kts | 321° |
| 2026-04-26 18:42 | 37.59856 | 26.62285 | 29990 ft | 466 kts | 321° |
| 2026-04-26 18:42 | 37.64777 | 26.56947 | 29993 ft | 466 kts | 321° |
| 2026-04-26 18:43 | 37.69693 | 26.51608 | 30007 ft | 466 kts | 321° |
| 2026-04-26 18:43 | 37.74600 | 26.46254 | 30011 ft | 466 kts | 320° |
| 2026-04-26 18:44 | 37.79502 | 26.40889 | 30017 ft | 466 kts | 320° |
| 2026-04-26 18:44 | 37.83569 | 26.36431 | 30017 ft | 465 kts | 320° |
| 2026-04-26 18:45 | 37.88460 | 26.31067 | 30016 ft | 465 kts | 320° |
| 2026-04-26 18:45 | 37.93352 | 26.25714 | 30021 ft | 465 kts | 320° |
| 2026-04-26 18:46 | 37.99029 | 26.19486 | 30020 ft | 464 kts | 320° |
| 2026-04-26 18:46 | 38.03119 | 26.14988 | 30017 ft | 464 kts | 320° |
| 2026-04-26 18:47 | 38.07994 | 26.09621 | 30007 ft | 464 kts | 320° |
| 2026-04-26 18:47 | 38.12869 | 26.04248 | 30009 ft | 464 kts | 320° |
| 2026-04-26 18:48 | 38.17738 | 25.98870 | 30008 ft | 464 kts | 320° |
| 2026-04-26 18:48 | 38.22609 | 25.93477 | 30008 ft | 464 kts | 320° |
| 2026-04-26 18:49 | 38.27566 | 25.88217 | 30012 ft | 464 kts | 323° |
| 2026-04-26 18:49 | 38.32717 | 25.83263 | 30008 ft | 464 kts | 323° |
| 2026-04-26 18:50 | 38.37806 | 25.78319 | 30022 ft | 463 kts | 323° |
| 2026-04-26 18:50 | 38.42898 | 25.73289 | 30029 ft | 463 kts | 322° |
| 2026-04-26 18:51 | 38.47998 | 25.68270 | 30033 ft | 463 kts | 323° |
| 2026-04-26 18:51 | 38.53116 | 25.63276 | 30031 ft | 463 kts | 323° |
| 2026-04-26 18:52 | 38.58238 | 25.58270 | 30035 ft | 463 kts | 323° |
| 2026-04-26 18:52 | 38.63348 | 25.53258 | 30029 ft | 463 kts | 322° |
| 2026-04-26 18:53 | 38.68459 | 25.48231 | 30033 ft | 463 kts | 322° |
| 2026-04-26 18:53 | 38.73571 | 25.43193 | 30033 ft | 464 kts | 322° |
| 2026-04-26 18:54 | 38.78679 | 25.38151 | 30031 ft | 463 kts | 322° |
| 2026-04-26 18:54 | 38.83784 | 25.33102 | 30033 ft | 463 kts | 322° |
| 2026-04-26 18:55 | 38.88887 | 25.28046 | 30031 ft | 464 kts | 322° |
| 2026-04-26 18:55 | 38.93989 | 25.22982 | 30034 ft | 464 kts | 322° |
| 2026-04-26 18:56 | 38.99095 | 25.17904 | 30032 ft | 464 kts | 322° |
| 2026-04-26 18:56 | 39.04193 | 25.12823 | 30034 ft | 464 kts | 322° |
| 2026-04-26 18:57 | 39.08432 | 25.08592 | 30035 ft | 464 kts | 322° |
| 2026-04-26 18:57 | 39.14385 | 25.02637 | 30032 ft | 464 kts | 322° |
| 2026-04-26 18:58 | 39.19442 | 24.97569 | 30033 ft | 463 kts | 322° |
| 2026-04-26 18:58 | 39.24561 | 24.92430 | 30031 ft | 463 kts | 322° |
| 2026-04-26 18:59 | 39.29646 | 24.87310 | 30037 ft | 464 kts | 321° |
| 2026-04-26 18:59 | 39.34696 | 24.82211 | 30033 ft | 464 kts | 321° |
| 2026-04-26 19:00 | 39.39778 | 24.77071 | 30032 ft | 464 kts | 321° |
| 2026-04-26 19:00 | 39.44854 | 24.71928 | 30054 ft | 464 kts | 321° |
| 2026-04-26 19:01 | 39.50030 | 24.66938 | 30036 ft | 464 kts | 326° |
| 2026-04-26 19:01 | 39.55732 | 24.63001 | 30050 ft | 465 kts | 333° |
| 2026-04-26 19:02 | 39.61584 | 24.59395 | 30038 ft | 466 kts | 333° |
| 2026-04-26 19:02 | 39.66491 | 24.56349 | 30037 ft | 466 kts | 333° |
| 2026-04-26 19:03 | 39.73285 | 24.52085 | 30036 ft | 467 kts | 333° |
| 2026-04-26 19:03 | 39.79128 | 24.48396 | 30036 ft | 467 kts | 333° |
| 2026-04-26 19:04 | 39.84967 | 24.44702 | 30037 ft | 467 kts | 333° |
| 2026-04-26 19:04 | 39.90799 | 24.41006 | 30038 ft | 466 kts | 333° |
| 2026-04-26 19:05 | 39.99541 | 24.35454 | 30039 ft | 466 kts | 333° |
| 2026-04-26 19:06 | 40.05361 | 24.31749 | 30036 ft | 465 kts | 333° |
| 2026-04-26 19:06 | 40.11180 | 24.28037 | 30026 ft | 465 kts | 333° |
| 2026-04-26 19:07 | 40.16991 | 24.24324 | 30028 ft | 465 kts | 333° |
| 2026-04-26 19:07 | 40.22799 | 24.20605 | 30021 ft | 465 kts | 333° |
| 2026-04-26 19:08 | 40.28610 | 24.16877 | 30029 ft | 466 kts | 332° |
| 2026-04-26 19:08 | 40.34392 | 24.13160 | 30022 ft | 466 kts | 333° |
| 2026-04-26 19:09 | 40.40210 | 24.09413 | 30014 ft | 466 kts | 333° |
| 2026-04-26 19:09 | 40.46025 | 24.05660 | 30017 ft | 466 kts | 333° |
| 2026-04-26 19:10 | 40.51835 | 24.01902 | 30010 ft | 466 kts | 333° |
| 2026-04-26 19:10 | 40.57657 | 23.98130 | 30011 ft | 466 kts | 333° |
| 2026-04-26 19:11 | 40.63494 | 23.94388 | 30009 ft | 467 kts | 333° |
| 2026-04-26 19:11 | 40.69365 | 23.90717 | 30007 ft | 468 kts | 334° |
| 2026-04-26 19:12 | 40.75248 | 23.87034 | 29998 ft | 468 kts | 334° |
| 2026-04-26 19:12 | 40.81135 | 23.83327 | 30003 ft | 469 kts | 334° |
| 2026-04-26 19:13 | 40.87036 | 23.79595 | 30000 ft | 471 kts | 334° |
| 2026-04-26 19:13 | 40.92953 | 23.75847 | 30000 ft | 472 kts | 334° |
| 2026-04-26 19:14 | 40.98888 | 23.72080 | 29994 ft | 474 kts | 334° |
| 2026-04-26 19:14 | 41.04839 | 23.68296 | 29998 ft | 475 kts | 334° |
| 2026-04-26 19:15 | 41.10796 | 23.64499 | 30000 ft | 476 kts | 334° |
| 2026-04-26 19:15 | 41.16772 | 23.60682 | 30000 ft | 477 kts | 334° |
| 2026-04-26 19:16 | 41.22749 | 23.56857 | 30002 ft | 477 kts | 334° |
| 2026-04-26 19:16 | 41.28743 | 23.53022 | 30012 ft | 478 kts | 334° |
| 2026-04-26 19:17 | 41.34735 | 23.49180 | 30009 ft | 479 kts | 334° |
| 2026-04-26 19:17 | 41.40733 | 23.45326 | 30017 ft | 479 kts | 334° |
| 2026-04-26 19:18 | 41.46725 | 23.41438 | 30025 ft | 479 kts | 334° |
| 2026-04-26 19:18 | 41.52710 | 23.37527 | 30036 ft | 479 kts | 334° |
| 2026-04-26 19:19 | 41.58652 | 23.33636 | 30045 ft | 479 kts | 334° |
| 2026-04-26 19:19 | 41.64642 | 23.29708 | 30051 ft | 480 kts | 333° |
| 2026-04-26 19:20 | 41.70631 | 23.25775 | 30062 ft | 479 kts | 333° |
| 2026-04-26 19:20 | 41.76606 | 23.21842 | 30073 ft | 479 kts | 333° |
| 2026-04-26 19:21 | 41.82595 | 23.17894 | 30074 ft | 479 kts | 333° |
| 2026-04-26 19:21 | 41.88568 | 23.13946 | 30092 ft | 479 kts | 333° |
| 2026-04-26 19:22 | 41.94552 | 23.09982 | 30097 ft | 479 kts | 333° |
| 2026-04-26 19:22 | 42.00527 | 23.06016 | 30091 ft | 479 kts | 333° |
| 2026-04-26 19:23 | 42.06492 | 23.02048 | 30099 ft | 478 kts | 333° |
| 2026-04-26 19:23 | 42.12453 | 22.98076 | 30108 ft | 478 kts | 333° |
| 2026-04-26 19:24 | 42.18419 | 22.94092 | 30107 ft | 478 kts | 333° |
| 2026-04-26 19:24 | 42.27375 | 22.88092 | 30112 ft | 480 kts | 333° |
| 2026-04-26 19:25 | 42.31378 | 22.85405 | 30116 ft | 481 kts | 333° |
| 2026-04-26 19:25 | 42.39361 | 22.80036 | 30122 ft | 482 kts | 333° |
| 2026-04-26 19:26 | 42.45373 | 22.75981 | 30127 ft | 483 kts | 333° |
| 2026-04-26 19:26 | 42.51383 | 22.71919 | 30109 ft | 483 kts | 333° |
| 2026-04-26 19:27 | 42.57381 | 22.67855 | 30138 ft | 482 kts | 333° |
| 2026-04-26 19:27 | 42.63380 | 22.63783 | 30120 ft | 482 kts | 333° |
| 2026-04-26 19:28 | 42.69382 | 22.59700 | 30134 ft | 482 kts | 333° |
| 2026-04-26 19:28 | 42.75382 | 22.55607 | 30135 ft | 482 kts | 333° |
| 2026-04-26 19:29 | 42.81368 | 22.51517 | 30139 ft | 482 kts | 332° |
| 2026-04-26 19:29 | 42.87066 | 22.46750 | 30138 ft | 479 kts | 322° |
| 2026-04-26 19:30 | 42.92230 | 22.41047 | 30238 ft | 475 kts | 320° |
| 2026-04-26 19:30 | 42.94772 | 22.38199 | 30490 ft | 472 kts | 320° |
| 2026-04-26 19:30 | 42.95598 | 22.37274 | 30571 ft | 473 kts | 320° |
| 2026-04-26 19:31 | 42.99889 | 22.32485 | 30995 ft | 479 kts | 320° |
| 2026-04-26 19:31 | 43.02481 | 22.29606 | 31240 ft | 481 kts | 320° |
| 2026-04-26 19:31 | 43.05054 | 22.26752 | 31490 ft | 483 kts | 320° |
| 2026-04-26 19:31 | 43.07664 | 22.23860 | 31740 ft | 483 kts | 320° |
| 2026-04-26 19:32 | 43.10275 | 22.20965 | 31997 ft | 483 kts | 320° |
| 2026-04-26 19:32 | 43.12885 | 22.18067 | 32248 ft | 483 kts | 320° |
| 2026-04-26 19:32 | 43.15491 | 22.15170 | 32509 ft | 482 kts | 320° |
| 2026-04-26 19:32 | 43.18082 | 22.12288 | 32777 ft | 480 kts | 320° |
| 2026-04-26 19:33 | 43.19832 | 22.10338 | 32939 ft | 479 kts | 320° |
| 2026-04-26 19:33 | 43.22418 | 22.07456 | 33221 ft | 479 kts | 320° |
| 2026-04-26 19:33 | 43.25007 | 22.04564 | 33470 ft | 478 kts | 320° |
| 2026-04-26 19:33 | 43.27573 | 22.01695 | 33732 ft | 476 kts | 320° |
| 2026-04-26 19:34 | 43.30143 | 21.98819 | 34017 ft | 476 kts | 320° |
| 2026-04-26 19:34 | 43.32722 | 21.95929 | 34087 ft | 480 kts | 320° |
| 2026-04-26 19:34 | 43.37866 | 21.90156 | 34146 ft | 476 kts | 320° |
| 2026-04-26 19:35 | 43.42983 | 21.84401 | 34149 ft | 473 kts | 320° |
| 2026-04-26 19:35 | 43.48044 | 21.78697 | 34148 ft | 468 kts | 320° |
| 2026-04-26 19:36 | 43.52215 | 21.73985 | 34151 ft | 466 kts | 320° |
| 2026-04-26 19:36 | 43.58075 | 21.67349 | 34152 ft | 467 kts | 319° |
| 2026-04-26 19:37 | 43.63076 | 21.61673 | 34147 ft | 470 kts | 319° |
| 2026-04-26 19:37 | 43.68136 | 21.55916 | 34150 ft | 473 kts | 319° |
| 2026-04-26 19:38 | 43.73275 | 21.50056 | 34161 ft | 485 kts | 319° |
| 2026-04-26 19:38 | 43.78516 | 21.44067 | 34158 ft | 490 kts | 319° |
| 2026-04-26 19:39 | 43.83764 | 21.38057 | 34149 ft | 489 kts | 319° |
| 2026-04-26 19:39 | 43.88984 | 21.32065 | 34155 ft | 486 kts | 319° |
| 2026-04-26 19:40 | 43.94175 | 21.26093 | 34158 ft | 483 kts | 319° |
| 2026-04-26 19:40 | 43.99324 | 21.20153 | 34164 ft | 480 kts | 319° |
| 2026-04-26 19:41 | 44.04447 | 21.14229 | 34159 ft | 478 kts | 319° |
| 2026-04-26 19:41 | 44.08720 | 21.09277 | 34166 ft | 477 kts | 319° |
| 2026-04-26 19:42 | 44.14630 | 21.02412 | 34168 ft | 476 kts | 319° |
| 2026-04-26 19:42 | 44.19716 | 20.96491 | 34172 ft | 476 kts | 319° |
| 2026-04-26 19:43 | 44.24797 | 20.90558 | 34170 ft | 477 kts | 319° |
| 2026-04-26 19:43 | 44.29887 | 20.84602 | 34178 ft | 478 kts | 319° |
| 2026-04-26 19:44 | 44.34999 | 20.78648 | 34180 ft | 479 kts | 319° |
| 2026-04-26 19:44 | 44.40183 | 20.72782 | 34179 ft | 480 kts | 320° |
| 2026-04-26 19:45 | 44.45387 | 20.66913 | 34181 ft | 481 kts | 319° |
| 2026-04-26 19:45 | 44.50581 | 20.61020 | 34190 ft | 481 kts | 319° |
| 2026-04-26 19:46 | 44.55766 | 20.55105 | 34188 ft | 480 kts | 319° |
| 2026-04-26 19:46 | 44.60943 | 20.49183 | 34196 ft | 480 kts | 319° |
| 2026-04-26 19:47 | 44.65238 | 20.44258 | 34203 ft | 479 kts | 319° |
| 2026-04-26 19:47 | 44.71265 | 20.37331 | 34207 ft | 479 kts | 319° |
| 2026-04-26 19:48 | 44.76413 | 20.31400 | 34212 ft | 478 kts | 319° |
| 2026-04-26 19:48 | 44.81555 | 20.25462 | 34213 ft | 478 kts | 319° |
| 2026-04-26 19:49 | 44.86685 | 20.19524 | 34213 ft | 477 kts | 319° |
| 2026-04-26 19:49 | 44.91814 | 20.13572 | 34212 ft | 477 kts | 319° |
| 2026-04-26 19:50 | 44.96941 | 20.07609 | 34208 ft | 477 kts | 319° |
| 2026-04-26 19:50 | 45.02059 | 20.01642 | 34205 ft | 478 kts | 319° |
| 2026-04-26 19:51 | 45.07184 | 19.95653 | 34203 ft | 478 kts | 318° |
| 2026-04-26 19:51 | 45.12310 | 19.89647 | 34200 ft | 478 kts | 318° |
| 2026-04-26 19:52 | 45.17427 | 19.83638 | 34202 ft | 478 kts | 318° |
| 2026-04-26 19:52 | 45.22547 | 19.77611 | 34204 ft | 478 kts | 318° |
| 2026-04-26 19:53 | 45.27663 | 19.71574 | 34199 ft | 478 kts | 318° |
| 2026-04-26 19:53 | 45.32770 | 19.65533 | 34203 ft | 477 kts | 318° |
| 2026-04-26 19:54 | 45.37834 | 19.59529 | 34207 ft | 477 kts | 318° |
| 2026-04-26 19:54 | 45.42923 | 19.53480 | 34209 ft | 476 kts | 318° |
| 2026-04-26 19:55 | 45.47999 | 19.47431 | 34209 ft | 476 kts | 318° |
| 2026-04-26 19:55 | 45.53073 | 19.41370 | 34210 ft | 475 kts | 317° |
| 2026-04-26 19:56 | 45.58137 | 19.35306 | 34213 ft | 475 kts | 317° |
| 2026-04-26 19:56 | 45.63195 | 19.29235 | 34211 ft | 474 kts | 317° |
| 2026-04-26 19:57 | 45.68240 | 19.23164 | 34213 ft | 474 kts | 317° |
| 2026-04-26 19:57 | 45.73273 | 19.17093 | 34209 ft | 473 kts | 317° |
| 2026-04-26 19:58 | 45.78299 | 19.11014 | 34212 ft | 472 kts | 317° |
| 2026-04-26 19:58 | 45.83308 | 19.04938 | 34220 ft | 471 kts | 317° |
| 2026-04-26 19:59 | 45.87791 | 18.98142 | 34224 ft | 467 kts | 306° |
| 2026-04-26 19:59 | 45.91376 | 18.90393 | 34221 ft | 465 kts | 301° |
| 2026-04-26 20:00 | 45.94780 | 18.82492 | 34208 ft | 465 kts | 301° |
| 2026-04-26 20:00 | 45.98187 | 18.74595 | 34220 ft | 464 kts | 301° |
| 2026-04-26 20:01 | 46.01600 | 18.66713 | 34226 ft | 464 kts | 301° |
| 2026-04-26 20:01 | 46.05011 | 18.58837 | 34233 ft | 464 kts | 301° |
| 2026-04-26 20:02 | 46.08397 | 18.50998 | 34227 ft | 464 kts | 301° |
| 2026-04-26 20:02 | 46.11247 | 18.44384 | 34246 ft | 464 kts | 301° |
| 2026-04-26 20:03 | 46.15193 | 18.35197 | 34248 ft | 464 kts | 301° |
| 2026-04-26 20:03 | 46.18583 | 18.27279 | 34230 ft | 464 kts | 300° |
| 2026-04-26 20:04 | 46.21964 | 18.19361 | 34234 ft | 464 kts | 300° |
| 2026-04-26 20:04 | 46.25345 | 18.11419 | 34230 ft | 464 kts | 300° |
| 2026-04-26 20:05 | 46.28722 | 18.03465 | 34228 ft | 464 kts | 300° |
| 2026-04-26 20:05 | 46.32094 | 17.95500 | 34230 ft | 465 kts | 300° |
| 2026-04-26 20:06 | 46.35461 | 17.87523 | 34236 ft | 465 kts | 300° |
| 2026-04-26 20:06 | 46.38826 | 17.79528 | 34233 ft | 465 kts | 300° |
| 2026-04-26 20:07 | 46.42185 | 17.71523 | 34236 ft | 465 kts | 300° |
| 2026-04-26 20:07 | 46.45542 | 17.63502 | 34235 ft | 465 kts | 300° |
| 2026-04-26 20:08 | 46.48896 | 17.55464 | 34241 ft | 465 kts | 300° |
| 2026-04-26 20:08 | 46.52242 | 17.47420 | 34246 ft | 465 kts | 300° |
| 2026-04-26 20:09 | 46.55583 | 17.39367 | 34255 ft | 465 kts | 300° |
| 2026-04-26 20:09 | 46.58917 | 17.31306 | 34265 ft | 465 kts | 300° |
| 2026-04-26 20:10 | 46.62220 | 17.23297 | 34267 ft | 465 kts | 300° |
| 2026-04-26 20:10 | 46.65541 | 17.15220 | 34267 ft | 464 kts | 300° |
| 2026-04-26 20:11 | 46.68869 | 17.07102 | 34267 ft | 464 kts | 300° |
| 2026-04-26 20:12 | 46.73787 | 16.95061 | 34262 ft | 463 kts | 300° |
| 2026-04-26 20:12 | 46.77063 | 16.87013 | 34262 ft | 462 kts | 300° |
| 2026-04-26 20:13 | 46.80337 | 16.78943 | 34256 ft | 461 kts | 300° |
| 2026-04-26 20:13 | 46.83602 | 16.70876 | 34254 ft | 461 kts | 300° |
| 2026-04-26 20:14 | 46.86856 | 16.62810 | 34255 ft | 460 kts | 300° |
| 2026-04-26 20:14 | 46.90099 | 16.54746 | 34253 ft | 460 kts | 300° |
| 2026-04-26 20:15 | 46.93332 | 16.46686 | 34258 ft | 459 kts | 300° |
| 2026-04-26 20:15 | 46.96551 | 16.38633 | 34258 ft | 458 kts | 300° |
| 2026-04-26 20:16 | 46.99764 | 16.30575 | 34261 ft | 458 kts | 300° |
| 2026-04-26 20:16 | 47.02967 | 16.22517 | 34261 ft | 457 kts | 300° |
| 2026-04-26 20:17 | 47.06159 | 16.14462 | 34254 ft | 456 kts | 299° |
| 2026-04-26 20:17 | 47.09340 | 16.06411 | 34260 ft | 456 kts | 299° |
| 2026-04-26 20:18 | 47.11978 | 15.99717 | 34269 ft | 456 kts | 299° |
| 2026-04-26 20:18 | 47.15144 | 15.91661 | 34260 ft | 455 kts | 299° |
| 2026-04-26 20:19 | 47.18043 | 15.84264 | 34265 ft | 455 kts | 299° |
| 2026-04-26 20:19 | 47.21197 | 15.76192 | 34267 ft | 455 kts | 299° |
| 2026-04-26 20:20 | 47.24346 | 15.68108 | 34260 ft | 456 kts | 298° |
| 2026-04-26 20:20 | 47.27491 | 15.60011 | 34251 ft | 455 kts | 298° |
| 2026-04-26 20:21 | 47.30632 | 15.51902 | 34262 ft | 456 kts | 298° |
| 2026-04-26 20:21 | 47.33768 | 15.43779 | 34268 ft | 457 kts | 298° |
| 2026-04-26 20:22 | 47.36910 | 15.35615 | 34259 ft | 458 kts | 298° |
| 2026-04-26 20:22 | 47.40054 | 15.27421 | 34249 ft | 459 kts | 298° |
| 2026-04-26 20:23 | 47.43191 | 15.19222 | 34249 ft | 459 kts | 298° |
| 2026-04-26 20:23 | 47.46333 | 15.10987 | 34246 ft | 460 kts | 298° |
| 2026-04-26 20:24 | 47.49454 | 15.02780 | 34240 ft | 461 kts | 298° |
| 2026-04-26 20:24 | 47.52607 | 14.94458 | 34232 ft | 462 kts | 297° |
| 2026-04-26 20:25 | 47.55742 | 14.86158 | 34232 ft | 462 kts | 297° |
| 2026-04-26 20:25 | 47.58859 | 14.77891 | 34231 ft | 463 kts | 297° |
| 2026-04-26 20:26 | 47.61985 | 14.69562 | 34210 ft | 463 kts | 297° |
| 2026-04-26 20:26 | 47.65113 | 14.61216 | 34216 ft | 462 kts | 297° |
| 2026-04-26 20:27 | 47.68223 | 14.52879 | 34224 ft | 462 kts | 297° |
| 2026-04-26 20:27 | 47.71333 | 14.44519 | 34217 ft | 462 kts | 297° |
| 2026-04-26 20:28 | 47.74433 | 14.36159 | 34212 ft | 462 kts | 297° |
| 2026-04-26 20:28 | 47.77529 | 14.27785 | 34212 ft | 462 kts | 297° |
| 2026-04-26 20:29 | 47.80620 | 14.19398 | 34207 ft | 462 kts | 297° |
| 2026-04-26 20:29 | 47.83699 | 14.11013 | 34212 ft | 462 kts | 297° |
| 2026-04-26 20:30 | 47.86713 | 14.02785 | 34208 ft | 462 kts | 297° |
| 2026-04-26 20:30 | 47.89786 | 13.94369 | 34211 ft | 462 kts | 297° |
| 2026-04-26 20:31 | 47.92852 | 13.85944 | 34221 ft | 462 kts | 297° |
| 2026-04-26 20:31 | 47.95910 | 13.77511 | 34218 ft | 462 kts | 297° |
| 2026-04-26 20:32 | 47.98961 | 13.69074 | 34219 ft | 463 kts | 297° |
| 2026-04-26 20:32 | 48.02012 | 13.60606 | 34221 ft | 463 kts | 297° |
| 2026-04-26 20:33 | 48.05057 | 13.52131 | 34221 ft | 463 kts | 297° |
| 2026-04-26 20:33 | 48.08078 | 13.43695 | 34220 ft | 463 kts | 297° |
| 2026-04-26 20:34 | 48.11113 | 13.35190 | 34229 ft | 464 kts | 297° |
| 2026-04-26 20:34 | 48.14143 | 13.26669 | 34223 ft | 464 kts | 297° |
| 2026-04-26 20:35 | 48.17172 | 13.18125 | 34225 ft | 464 kts | 297° |
| 2026-04-26 20:35 | 48.20195 | 13.09571 | 34221 ft | 465 kts | 297° |
| 2026-04-26 20:36 | 48.23464 | 13.01208 | 34226 ft | 466 kts | 303° |
| 2026-04-26 20:36 | 48.27581 | 12.93671 | 34228 ft | 468 kts | 310° |
| 2026-04-26 20:37 | 48.31935 | 12.86407 | 34218 ft | 468 kts | 310° |
| 2026-04-26 20:37 | 48.36275 | 12.79112 | 34224 ft | 468 kts | 310° |
| 2026-04-26 20:38 | 48.40591 | 12.71778 | 34220 ft | 468 kts | 310° |
| 2026-04-26 20:38 | 48.44902 | 12.64411 | 34224 ft | 468 kts | 310° |
| 2026-04-26 20:39 | 48.49202 | 12.57041 | 34225 ft | 469 kts | 310° |
| 2026-04-26 20:39 | 48.53506 | 12.49647 | 34228 ft | 469 kts | 310° |
| 2026-04-26 20:40 | 48.57802 | 12.42247 | 34234 ft | 469 kts | 310° |
| 2026-04-26 20:40 | 48.62097 | 12.34826 | 34230 ft | 469 kts | 310° |
| 2026-04-26 20:41 | 48.66360 | 12.27438 | 34229 ft | 469 kts | 310° |
| 2026-04-26 20:41 | 48.70639 | 12.20007 | 34238 ft | 468 kts | 310° |
| 2026-04-26 20:42 | 48.74202 | 12.11903 | 34248 ft | 466 kts | 294° |
| 2026-04-26 20:42 | 48.76188 | 12.02591 | 34241 ft | 466 kts | 280° |
| 2026-04-26 20:43 | 48.77165 | 11.92866 | 34236 ft | 467 kts | 279° |
| 2026-04-26 20:43 | 48.78133 | 11.83130 | 34236 ft | 467 kts | 279° |
| 2026-04-26 20:44 | 48.79159 | 11.73343 | 34235 ft | 467 kts | 280° |
| 2026-04-26 20:44 | 48.80176 | 11.63665 | 34237 ft | 468 kts | 280° |
| 2026-04-26 20:45 | 48.81195 | 11.53929 | 34239 ft | 468 kts | 280° |
| 2026-04-26 20:45 | 48.82214 | 11.44165 | 34238 ft | 468 kts | 280° |
| 2026-04-26 20:46 | 48.83225 | 11.34396 | 34236 ft | 469 kts | 280° |
| 2026-04-26 20:46 | 48.83955 | 11.29607 | 34227 ft | 465 kts | 292° |
| 2026-04-26 20:46 | 48.85517 | 11.25327 | 34246 ft | 464 kts | 308° |
| 2026-04-26 20:46 | 48.87735 | 11.21767 | 34244 ft | 466 kts | 319° |
| 2026-04-26 20:47 | 48.90364 | 11.18879 | 34238 ft | 469 kts | 330° |
| 2026-04-26 20:47 | 48.96518 | 11.15539 | 34225 ft | 472 kts | 341° |
| 2026-04-26 20:48 | 49.02795 | 11.12577 | 34250 ft | 473 kts | 340° |
| 2026-04-26 20:48 | 49.09046 | 11.09412 | 34249 ft | 474 kts | 340° |
| 2026-04-26 20:49 | 49.15314 | 11.06235 | 34248 ft | 474 kts | 340° |
| 2026-04-26 20:49 | 49.21578 | 11.03097 | 34254 ft | 473 kts | 340° |
| 2026-04-26 20:50 | 49.27811 | 10.99881 | 34258 ft | 472 kts | 340° |
| 2026-04-26 20:50 | 49.34030 | 10.96668 | 34260 ft | 471 kts | 340° |
| 2026-04-26 20:51 | 49.39998 | 10.92632 | 34271 ft | 468 kts | 330° |
| 2026-04-26 20:51 | 49.45414 | 10.87160 | 34260 ft | 466 kts | 323° |
| 2026-04-26 20:52 | 49.50675 | 10.81343 | 34263 ft | 465 kts | 324° |
| 2026-04-26 20:52 | 49.55946 | 10.75706 | 34259 ft | 465 kts | 325° |
| 2026-04-26 20:53 | 49.61304 | 10.70029 | 34260 ft | 465 kts | 325° |
| 2026-04-26 20:53 | 49.66626 | 10.64345 | 34254 ft | 465 kts | 325° |
| 2026-04-26 20:54 | 49.71808 | 10.58522 | 34249 ft | 464 kts | 319° |
| 2026-04-26 20:54 | 49.76310 | 10.51298 | 34261 ft | 464 kts | 310° |
| 2026-04-26 20:55 | 49.79957 | 10.43150 | 34270 ft | 464 kts | 304° |
| 2026-04-26 20:55 | 49.83430 | 10.34747 | 34261 ft | 463 kts | 304° |
| 2026-04-26 20:56 | 49.86935 | 10.26370 | 34258 ft | 463 kts | 304° |
| 2026-04-26 20:56 | 49.90449 | 10.18023 | 34255 ft | 462 kts | 304° |
| 2026-04-26 20:57 | 49.93949 | 10.09679 | 34249 ft | 461 kts | 304° |
| 2026-04-26 20:57 | 49.97434 | 10.01338 | 34248 ft | 460 kts | 304° |
| 2026-04-26 20:58 | 50.00908 | 9.92997 | 34248 ft | 460 kts | 304° |
| 2026-04-26 20:58 | 50.04351 | 9.84631 | 34244 ft | 459 kts | 301° |
| 2026-04-26 20:59 | 50.06538 | 9.75261 | 34249 ft | 464 kts | 284° |
| 2026-04-26 20:59 | 50.07001 | 9.65197 | 34247 ft | 471 kts | 271° |
| 2026-04-26 21:00 | 50.06773 | 9.55079 | 34248 ft | 470 kts | 272° |
| 2026-04-26 21:00 | 50.06652 | 9.45000 | 34094 ft | 459 kts | 272° |
| 2026-04-26 21:00 | 50.06600 | 9.40031 | 33871 ft | 458 kts | 272° |
| 2026-04-26 21:01 | 50.06544 | 9.35081 | 33547 ft | 458 kts | 272° |
| 2026-04-26 21:01 | 50.06484 | 9.30111 | 33181 ft | 460 kts | 272° |
| 2026-04-26 21:01 | 50.06422 | 9.25120 | 32379 ft | 464 kts | 272° |
| 2026-04-26 21:01 | 50.06356 | 9.20105 | 31545 ft | 464 kts | 272° |
| 2026-04-26 21:02 | 50.06286 | 9.15081 | 30725 ft | 464 kts | 272° |
| 2026-04-26 21:02 | 50.06215 | 9.10100 | 30094 ft | 459 kts | 272° |
| 2026-04-26 21:02 | 50.06143 | 9.05164 | 29415 ft | 454 kts | 272° |
| 2026-04-26 21:02 | 50.06069 | 9.00265 | 28804 ft | 449 kts | 272° |
| 2026-04-26 21:03 | 50.05987 | 8.95496 | 28296 ft | 443 kts | 271° |
| 2026-04-26 21:03 | 50.05928 | 8.92308 | 27981 ft | 439 kts | 271° |
| 2026-04-26 21:03 | 50.05826 | 8.86756 | 27351 ft | 433 kts | 271° |
| 2026-04-26 21:03 | 50.05741 | 8.82149 | 26792 ft | 430 kts | 271° |
| 2026-04-26 21:04 | 50.05655 | 8.77528 | 26245 ft | 426 kts | 271° |
| 2026-04-26 21:04 | 50.05571 | 8.72870 | 25696 ft | 423 kts | 271° |
| 2026-04-26 21:04 | 50.05516 | 8.69843 | 25341 ft | 421 kts | 271° |
| 2026-04-26 21:04 | 50.05432 | 8.65316 | 24809 ft | 418 kts | 271° |
| 2026-04-26 21:05 | 50.05574 | 8.59837 | 24136 ft | 408 kts | 285° |
| 2026-04-26 21:05 | 50.06641 | 8.55858 | 23609 ft | 401 kts | 303° |
| 2026-04-26 21:05 | 50.08392 | 8.52520 | 23044 ft | 398 kts | 316° |
| 2026-04-26 21:05 | 50.10508 | 8.49773 | 22479 ft | 396 kts | 326° |
| 2026-04-26 21:06 | 50.12984 | 8.47949 | 21924 ft | 395 kts | 342° |
| 2026-04-26 21:06 | 50.15651 | 8.46959 | 21328 ft | 395 kts | 346° |
| 2026-04-26 21:06 | 50.17460 | 8.46360 | 20963 ft | 394 kts | 346° |
| 2026-04-26 21:06 | 50.20117 | 8.45305 | 20435 ft | 391 kts | 342° |
| 2026-04-26 21:07 | 50.22701 | 8.44028 | 19919 ft | 389 kts | 340° |
| 2026-04-26 21:07 | 50.25259 | 8.42640 | 19417 ft | 388 kts | 339° |
| 2026-04-26 21:07 | 50.27789 | 8.41185 | 18905 ft | 387 kts | 336° |
| 2026-04-26 21:07 | 50.30211 | 8.39401 | 18375 ft | 385 kts | 330° |
| 2026-04-26 21:08 | 50.32504 | 8.37223 | 17813 ft | 383 kts | 326° |
| 2026-04-26 21:08 | 50.34737 | 8.34967 | 17287 ft | 381 kts | 326° |
| 2026-04-26 21:08 | 50.36965 | 8.32724 | 16783 ft | 379 kts | 327° |
| 2026-04-26 21:08 | 50.39186 | 8.30508 | 16284 ft | 378 kts | 327° |
| 2026-04-26 21:09 | 50.41367 | 8.28339 | 15798 ft | 376 kts | 327° |
| 2026-04-26 21:09 | 50.43599 | 8.26109 | 15311 ft | 374 kts | 327° |
| 2026-04-26 21:09 | 50.45788 | 8.23912 | 14820 ft | 373 kts | 327° |
| 2026-04-26 21:09 | 50.47968 | 8.21718 | 14325 ft | 372 kts | 327° |
| 2026-04-26 21:10 | 50.50135 | 8.19532 | 13872 ft | 369 kts | 327° |
| 2026-04-26 21:10 | 50.52247 | 8.17402 | 13729 ft | 347 kts | 327° |
| 2026-04-26 21:10 | 50.54176 | 8.15456 | 13529 ft | 321 kts | 327° |
| 2026-04-26 21:10 | 50.56011 | 8.13604 | 13333 ft | 299 kts | 327° |
| 2026-04-26 21:11 | 50.57671 | 8.11927 | 13166 ft | 277 kts | 327° |
| 2026-04-26 21:11 | 50.59240 | 8.10340 | 12910 ft | 260 kts | 327° |
| 2026-04-26 21:11 | 50.60746 | 8.08814 | 12503 ft | 250 kts | 327° |
| 2026-04-26 21:11 | 50.62168 | 8.07371 | 12000 ft | 244 kts | 327° |
| 2026-04-26 21:12 | 50.63591 | 8.05928 | 11423 ft | 242 kts | 327° |
| 2026-04-26 21:12 | 50.65002 | 8.04494 | 10850 ft | 240 kts | 327° |
| 2026-04-26 21:12 | 50.66401 | 8.03073 | 10306 ft | 237 kts | 327° |
| 2026-04-26 21:12 | 50.67734 | 8.01717 | 10315 ft | 224 kts | 327° |
| 2026-04-26 21:13 | 50.69072 | 8.00356 | 10324 ft | 235 kts | 327° |
| 2026-04-26 21:13 | 50.70473 | 7.98929 | 10325 ft | 244 kts | 327° |
| 2026-04-26 21:13 | 50.71905 | 7.97471 | 10226 ft | 244 kts | 327° |
| 2026-04-26 21:13 | 50.73320 | 7.96026 | 10036 ft | 242 kts | 325° |
| 2026-04-26 21:14 | 50.74483 | 7.94071 | 9536 ft | 247 kts | 297° |
| 2026-04-26 21:14 | 50.74903 | 7.91490 | 9098 ft | 249 kts | 274° |
| 2026-04-26 21:14 | 50.74695 | 7.88770 | 8648 ft | 251 kts | 260° |
| 2026-04-26 21:14 | 50.74258 | 7.86060 | 8213 ft | 253 kts | 258° |
| 2026-04-26 21:15 | 50.73817 | 7.83405 | 7767 ft | 254 kts | 258° |
| 2026-04-26 21:15 | 50.73381 | 7.80703 | 7361 ft | 253 kts | 259° |
| 2026-04-26 21:15 | 50.72956 | 7.78014 | 6968 ft | 252 kts | 259° |
| 2026-04-26 21:15 | 50.72536 | 7.75342 | 6577 ft | 251 kts | 259° |
| 2026-04-26 21:16 | 50.72114 | 7.72673 | 6166 ft | 250 kts | 258° |
| 2026-04-26 21:16 | 50.71695 | 7.70016 | 5756 ft | 249 kts | 258° |
| 2026-04-26 21:16 | 50.71276 | 7.67373 | 5378 ft | 249 kts | 257° |
| 2026-04-26 21:16 | 50.70877 | 7.64854 | 4977 ft | 250 kts | 257° |
| 2026-04-26 21:17 | 50.70455 | 7.62204 | 4573 ft | 249 kts | 257° |
| 2026-04-26 21:17 | 50.70035 | 7.59554 | 4163 ft | 249 kts | 257° |
| 2026-04-26 21:17 | 50.69615 | 7.56908 | 3765 ft | 249 kts | 256° |
| 2026-04-26 21:17 | 50.69195 | 7.54264 | 3358 ft | 249 kts | 256° |
| 2026-04-26 21:18 | 50.68775 | 7.51624 | 3005 ft | 246 kts | 255° |
| 2026-04-26 21:18 | 50.68369 | 7.49092 | 2963 ft | 231 kts | 256° |
| 2026-04-26 21:18 | 50.68157 | 7.46635 | 2958 ft | 227 kts | 280° |
| 2026-04-26 21:18 | 50.68608 | 7.44259 | 2988 ft | 229 kts | 288° |
| 2026-04-26 21:19 | 50.69097 | 7.41834 | 2998 ft | 234 kts | 287° |
| 2026-04-26 21:19 | 50.69683 | 7.39470 | 2966 ft | 228 kts | 308° |
| 2026-04-26 21:19 | 50.70799 | 7.37767 | 2991 ft | 225 kts | 320° |
| 2026-04-26 21:19 | 50.71984 | 7.36119 | 2997 ft | 227 kts | 318° |
| 2026-04-26 21:20 | 50.73127 | 7.34466 | 3010 ft | 217 kts | 318° |
| 2026-04-26 21:20 | 50.74227 | 7.32881 | 2993 ft | 212 kts | 318° |
| 2026-04-26 21:20 | 50.75273 | 7.31367 | 2998 ft | 195 kts | 318° |
| 2026-04-26 21:20 | 50.76249 | 7.29965 | 2919 ft | 189 kts | 318° |
| 2026-04-26 21:21 | 50.77226 | 7.28560 | 2631 ft | 188 kts | 318° |
| 2026-04-26 21:21 | 50.78183 | 7.27178 | 2390 ft | 185 kts | 318° |
| 2026-04-26 21:21 | 50.79119 | 7.25826 | 2127 ft | 180 kts | 319° |
| 2026-04-26 21:21 | 50.80047 | 7.24484 | 1899 ft | 181 kts | 319° |
| 2026-04-26 21:22 | 50.80967 | 7.23156 | 1656 ft | 177 kts | 319° |
| 2026-04-26 21:22 | 50.81861 | 7.21864 | 1410 ft | 174 kts | 319° |
| 2026-04-26 21:22 | 50.82737 | 7.20597 | 1152 ft | 167 kts | 319° |
| 2026-04-26 21:23 | 50.84394 | 7.18194 | 708 ft | 158 kts | 319° |
| 2026-04-26 21:23 | 50.85180 | 7.17057 | 475 ft | 147 kts | 319° |
| 2026-04-26 21:23 | 50.85924 | 7.15981 | 323 ft | 145 kts | 318° |
| 2026-04-26 21:23 | 50.86618 | 7.14984 | 267 ft | 123 kts | 317° |
| 2026-04-26 21:24 | 50.87188 | 7.14166 | 261 ft | 93 kts | 318° |
| 2026-04-26 21:24 | 50.87550 | 7.13638 | 249 ft | 59 kts | 317° |
| 2026-04-26 21:24 | 50.87768 | 7.13311 | 250 ft | 27 kts | 314° |
| 2026-04-26 21:24 | 50.87851 | 7.13133 | 246 ft | 14 kts | 264° |
| 2026-04-26 21:25 | 50.87823 | 7.12980 | 242 ft | 16 kts | 255° |
| 2026-04-26 21:25 | 50.87809 | 7.12891 | 238 ft | 0 kts | 256° |
| 2026-04-26 21:26 | 50.87809 | 7.12890 | 238 ft | 1 kts | 256° |
| 2026-04-26 21:26 | 50.87803 | 7.12854 | 237 ft | 6 kts | 256° |
| 2026-04-26 21:26 | 50.87789 | 7.12768 | 238 ft | 9 kts | 247° |
| 2026-04-26 21:26 | 50.87731 | 7.12715 | 238 ft | 10 kts | 214° |
| 2026-04-26 21:27 | 50.87695 | 7.12655 | 239 ft | 6 kts | 230° |
| 2026-04-26 21:27 | 50.87679 | 7.12627 | 237 ft | 0 kts | 227° |